Blue Horizon — SWPG — position and weather

sailwx.info

Track history (hours):
 
Tides and Currents Weather Stations Pressure Air Temp Water Temp Dewpoint Dewpoint Depression Visibility Wind Speed Wind Dir Waves Ship Positions

Blue Horizon

Last reported at 2018-Feb-24 13:58 UTC. Time now 2018-Feb-24 14:24 UTC.
Position N 37°57' E 023°38'.

Length 187 m; draft 6.7 m.

Type: Passenger vessel. MMSI: 239575000.

Date/timePositionNaut miles runAvg speedWind from/ knotsBaromVisibWave heightAir tempDewpointWater temp
2018-Feb-24 13:58N 37°57' E 023°38'0 0.0
2018-Feb-24 13:28N 37°57' E 023°38'0 0.0
2018-Feb-24 12:55N 37°57' E 023°38'0 0.0
2018-Feb-24 12:28N 37°57' E 023°38'0 0.0
2018-Feb-24 11:58N 37°57' E 023°38'0 0.0
2018-Feb-24 11:28N 37°57' E 023°38'0 0.0
2018-Feb-24 10:58N 37°57' E 023°38'0 0.0
2018-Feb-24 10:28N 37°57' E 023°38'0 0.0
2018-Feb-24 10:01N 37°57' E 023°38'0 0.0
2018-Feb-24 09:30N 37°57' E 023°38'0 0.0
2018-Feb-24 09:00N 37°57' E 023°38'0 0.0
2018-Feb-24 08:30N 37°57' E 023°38'0 0.0
2018-Feb-24 08:00N 37°57' E 023°38'0 0.0
2018-Feb-24 07:30N 37°57' E 023°38'0 0.0
2018-Feb-24 07:00N 37°57' E 023°38'0 0.0
2018-Feb-24 06:30N 37°57' E 023°38'0 0.0
2018-Feb-24 06:00N 37°57' E 023°38'0 0.0
2018-Feb-24 05:30N 37°57' E 023°38'0 0.0
2018-Feb-24 05:00N 37°57' E 023°38'1 1.1
2018-Feb-24 04:30N 37°56' E 023°38'816.8
2018-Feb-24 04:01N 37°48' E 023°41'1019.4
2018-Feb-24 03:30N 37°39' E 023°46'16 0.5
2018-Feb-22 21:05N 37°23' E 023°48'819.3
2018-Feb-22 20:40N 37°31' E 023°46'319.1
2018-Feb-22 20:30N 37°34' E 023°44'1019.2
2018-Feb-22 20:00N 37°43' E 023°40'918.8
2018-Feb-22 19:30N 37°52' E 023°36'5 9.9
2018-Feb-22 18:59N 37°57' E 023°38'0 0.0
2018-Feb-22 18:29N 37°57' E 023°38'0 0.0
2018-Feb-22 17:59N 37°57' E 023°38'0 0.0
2018-Feb-22 17:29N 37°57' E 023°38'0 0.0
2018-Feb-22 16:59N 37°57' E 023°38'0 0.0
2018-Feb-22 16:29N 37°57' E 023°38'0 0.0
2018-Feb-22 15:59N 37°57' E 023°38'0 0.0
2018-Feb-22 15:29N 37°57' E 023°38'0 0.0
2018-Feb-22 14:59N 37°57' E 023°38'0 0.0
2018-Feb-22 14:29N 37°57' E 023°38'0 0.0
2018-Feb-22 13:56N 37°57' E 023°38'0 0.0
2018-Feb-22 13:29N 37°57' E 023°38'0 0.0
2018-Feb-22 12:59N 37°57' E 023°38'0 0.0
2018-Feb-22 12:29N 37°57' E 023°38'0 0.0
2018-Feb-22 11:59N 37°57' E 023°38'0 0.0
2018-Feb-22 11:29N 37°57' E 023°38'0 0.0
2018-Feb-22 10:59N 37°57' E 023°38'0 0.0
2018-Feb-22 10:29N 37°57' E 023°38'0 0.0
2018-Feb-22 09:59N 37°57' E 023°38'0 0.0
2018-Feb-22 09:29N 37°57' E 023°38'0 0.0
2018-Feb-22 08:59N 37°57' E 023°38'0 0.0
2018-Feb-22 08:29N 37°57' E 023°38'0 0.0
2018-Feb-22 07:59N 37°57' E 023°38'0 0.0
2018-Feb-22 07:29N 37°57' E 023°38'0 0.0
2018-Feb-22 06:59N 37°57' E 023°38'0 0.0
2018-Feb-22 06:29N 37°57' E 023°38'0 0.0
2018-Feb-22 05:59N 37°57' E 023°38'0 0.0
2018-Feb-22 05:29N 37°57' E 023°38'0 0.0
2018-Feb-22 04:59N 37°57' E 023°38'0 0.3
2018-Feb-22 04:30N 37°57' E 023°38'611.2
2018-Feb-22 04:00N 37°51' E 023°39'1019.4
2018-Feb-22 03:30N 37°42' E 023°45'1019.6
2018-Feb-22 02:59N 37°33' E 023°49'3 0.1
2018-Feb-20 20:47N 37°30' E 023°47'519.4
2018-Feb-20 20:30N 37°35' E 023°45'1019.5
2018-Feb-20 20:00N 37°44' E 023°40'1019.3
2018-Feb-20 19:30N 37°53' E 023°36'4 7.5
2018-Feb-20 18:59N 37°57' E 023°38'0 0.0
2018-Feb-20 18:29N 37°57' E 023°38'0 0.0
2018-Feb-20 17:56N 37°57' E 023°38'0 0.0
2018-Feb-20 17:29N 37°57' E 023°38'0 0.0
2018-Feb-20 16:59N 37°57' E 023°38'0 0.0
2018-Feb-20 16:29N 37°57' E 023°38'0 0.0
2018-Feb-20 15:59N 37°57' E 023°38'0 0.0
2018-Feb-20 15:29N 37°57' E 023°38'0 0.0
2018-Feb-20 14:59N 37°57' E 023°38'0 0.0
2018-Feb-20 14:29N 37°57' E 023°38'0 0.0
2018-Feb-20 13:59N 37°57' E 023°38'0 0.0
2018-Feb-20 13:29N 37°57' E 023°38'0 0.0
2018-Feb-20 12:59N 37°57' E 023°38'0 0.0
2018-Feb-20 12:29N 37°57' E 023°38'0 0.0
2018-Feb-20 11:59N 37°57' E 023°38'0 0.0
2018-Feb-20 11:29N 37°57' E 023°38'0 0.0
2018-Feb-20 10:59N 37°57' E 023°38'0 0.0
2018-Feb-20 10:29N 37°57' E 023°38'0 0.0
2018-Feb-20 09:59N 37°57' E 023°38'0 0.0
2018-Feb-20 09:29N 37°57' E 023°38'0 0.0
2018-Feb-20 08:59N 37°57' E 023°38'0 0.0
2018-Feb-20 08:29N 37°57' E 023°38'0 0.0
2018-Feb-20 07:59N 37°57' E 023°38'0 0.0
2018-Feb-20 07:29N 37°57' E 023°38'0 0.0
2018-Feb-20 06:59N 37°57' E 023°38'0 0.0
2018-Feb-20 06:29N 37°57' E 023°38'0 0.0
2018-Feb-20 05:59N 37°57' E 023°38'0 0.0
2018-Feb-20 05:26N 37°57' E 023°38'0 0.0
2018-Feb-20 04:59N 37°57' E 023°38'0 0.6
2018-Feb-20 04:30N 37°56' E 023°38'510.0
2018-Feb-20 04:00N 37°52' E 023°39'1019.3
2018-Feb-20 03:30N 37°43' E 023°44'11 0.4
2018-Feb-18 20:31N 37°32' E 023°46'119.0
2018-Feb-18 20:26N 37°33' E 023°45'819.3
2018-Feb-18 20:01N 37°41' E 023°41'1019.3
2018-Feb-18 19:31N 37°50' E 023°37'713.4
2018-Feb-18 18:59N 37°57' E 023°38'0 0.0
2018-Feb-18 18:29N 37°57' E 023°38'0 0.0
2018-Feb-18 17:59N 37°57' E 023°38'0 0.0
2018-Feb-18 17:29N 37°57' E 023°38'0 0.0
2018-Feb-18 16:59N 37°57' E 023°38'0 0.0
2018-Feb-18 16:29N 37°57' E 023°38'0 0.0
2018-Feb-18 15:59N 37°57' E 023°38'0 0.0
2018-Feb-18 15:29N 37°57' E 023°38'0 0.0
2018-Feb-18 14:59N 37°57' E 023°38'0 0.0
2018-Feb-18 14:29N 37°57' E 023°38'0 0.0
2018-Feb-18 13:59N 37°57' E 023°38'0 0.0
2018-Feb-18 13:29N 37°57' E 023°38'0 0.0
2018-Feb-18 12:59N 37°57' E 023°38'0 0.0
2018-Feb-18 12:29N 37°57' E 023°38'0 0.0
2018-Feb-18 11:59N 37°57' E 023°38'0 0.0
2018-Feb-18 11:29N 37°57' E 023°38'0 0.0
2018-Feb-18 10:59N 37°57' E 023°38'0 0.0
2018-Feb-18 10:29N 37°57' E 023°38'0 0.0
2018-Feb-18 09:59N 37°57' E 023°38'0 0.0
2018-Feb-18 09:29N 37°57' E 023°38'0 0.0
2018-Feb-18 08:59N 37°57' E 023°38'0 0.0
2018-Feb-18 08:29N 37°57' E 023°38'0 0.0
2018-Feb-18 07:59N 37°57' E 023°38'0 0.0
2018-Feb-18 07:29N 37°57' E 023°38'0 0.0
2018-Feb-18 06:59N 37°57' E 023°38'0 0.0
2018-Feb-18 06:29N 37°57' E 023°38'0 0.0
2018-Feb-18 05:59N 37°57' E 023°38'0 0.0
2018-Feb-18 05:29N 37°57' E 023°38'0 0.0
2018-Feb-18 04:59N 37°57' E 023°38'1 1.1
2018-Feb-18 04:30N 37°56' E 023°38'815.7
2018-Feb-18 04:00N 37°49' E 023°41'1019.4
2018-Feb-18 03:30N 37°40' E 023°46'7 0.2
2018-Feb-16 20:43N 37°33' E 023°45'419.3
2018-Feb-16 20:30N 37°37' E 023°43'1019.6
2018-Feb-16 20:01N 37°46' E 023°38'918.9
2018-Feb-16 19:30N 37°55' E 023°37'2 3.6
2018-Feb-16 19:00N 37°57' E 023°38'0 0.0
2018-Feb-16 18:30N 37°57' E 023°38'0 0.0
2018-Feb-16 18:00N 37°57' E 023°38'0 0.0
2018-Feb-16 17:30N 37°57' E 023°38'0 0.0
2018-Feb-16 17:00N 37°57' E 023°38'0 0.0
2018-Feb-16 16:30N 37°57' E 023°38'0 0.0
2018-Feb-16 16:00N 37°57' E 023°38'0 0.0
2018-Feb-16 15:30N 37°57' E 023°38'0 0.0
2018-Feb-16 15:01N 37°57' E 023°38'0 0.0
2018-Feb-16 14:30N 37°57' E 023°38'0 0.0
2018-Feb-16 14:00N 37°57' E 023°38'0 0.0
2018-Feb-16 13:31N 37°57' E 023°38'0 0.0
2018-Feb-16 13:01N 37°57' E 023°38'0 0.0
2018-Feb-16 12:30N 37°57' E 023°38'0 0.0
2018-Feb-16 12:00N 37°57' E 023°38'0 0.0
2018-Feb-16 11:30N 37°57' E 023°38'0 0.0
2018-Feb-16 11:00N 37°57' E 023°38'0 0.0
2018-Feb-16 10:30N 37°57' E 023°38'0 0.0
2018-Feb-16 10:00N 37°57' E 023°38'0 0.0
2018-Feb-16 09:30N 37°57' E 023°38'0 0.0
2018-Feb-16 09:00N 37°57' E 023°38'0 0.0
2018-Feb-16 08:30N 37°57' E 023°38'0 0.0
2018-Feb-16 08:00N 37°57' E 023°38'0 0.0
2018-Feb-16 07:30N 37°57' E 023°38'0 0.0
2018-Feb-16 07:00N 37°57' E 023°38'0 0.0
2018-Feb-16 06:30N 37°57' E 023°38'0 0.0
2018-Feb-16 06:00N 37°57' E 023°38'0 0.0
2018-Feb-16 05:30N 37°57' E 023°38'0 0.3
2018-Feb-16 05:00N 37°57' E 023°38'2 4.6
2018-Feb-16 04:31N 37°55' E 023°37'816.9
2018-Feb-16 04:00N 37°47' E 023°42'918.6
2018-Feb-16 03:30N 37°38' E 023°45'16 0.5
2018-Feb-14 21:09N 37°22' E 023°51'919.5
2018-Feb-14 20:41N 37°31' E 023°46'319.6
2018-Feb-14 20:30N 37°34' E 023°45'1019.5
2018-Feb-14 20:00N 37°43' E 023°40'1019.0
2018-Feb-14 19:30N 37°52' E 023°36'5 9.7
2018-Feb-14 19:00N 37°57' E 023°38'0 0.0
2018-Feb-14 18:30N 37°57' E 023°38'0 0.0
2018-Feb-14 18:00N 37°57' E 023°38'0 0.0
2018-Feb-14 17:30N 37°57' E 023°38'0 0.0
2018-Feb-14 17:00N 37°57' E 023°38'0 0.0
2018-Feb-14 16:27N 37°57' E 023°38'0 0.0
2018-Feb-14 16:00N 37°57' E 023°38'0 0.0
2018-Feb-14 15:30N 37°57' E 023°38'0 0.0
2018-Feb-14 15:00N 37°57' E 023°38'0 0.0
2018-Feb-14 14:30N 37°57' E 023°38'0 0.0
2018-Feb-14 14:00N 37°57' E 023°38'  
Track history (hours):
 
Tides and Currents Weather Stations Pressure Air Temp Water Temp Dewpoint Dewpoint Depression Visibility Wind Speed Wind Dir Waves Ship Positions

Blue Horizon

Last reported at 2018-Feb-24 13:58 UTC. Time now 2018-Feb-24 14:24 UTC.
Position N 37°57' E 023°38'.

Length 187 m; draft 6.7 m.

Type: Passenger vessel. MMSI: 239575000.

Date/timePositionNaut miles runAvg speedWind from/ knotsBaromVisibWave heightAir tempDewpointWater temp
2018-Feb-24 13:58N 37°57' E 023°38'0 0.0
2018-Feb-24 13:28N 37°57' E 023°38'0 0.0
2018-Feb-24 12:55N 37°57' E 023°38'0 0.0
2018-Feb-24 12:28N 37°57' E 023°38'0 0.0
2018-Feb-24 11:58N 37°57' E 023°38'0 0.0
2018-Feb-24 11:28N 37°57' E 023°38'0 0.0
2018-Feb-24 10:58N 37°57' E 023°38'0 0.0
2018-Feb-24 10:28N 37°57' E 023°38'0 0.0
2018-Feb-24 10:01N 37°57' E 023°38'0 0.0
2018-Feb-24 09:30N 37°57' E 023°38'0 0.0
2018-Feb-24 09:00N 37°57' E 023°38'0 0.0
2018-Feb-24 08:30N 37°57' E 023°38'0 0.0
2018-Feb-24 08:00N 37°57' E 023°38'0 0.0
2018-Feb-24 07:30N 37°57' E 023°38'0 0.0
2018-Feb-24 07:00N 37°57' E 023°38'0 0.0
2018-Feb-24 06:30N 37°57' E 023°38'0 0.0
2018-Feb-24 06:00N 37°57' E 023°38'0 0.0
2018-Feb-24 05:30N 37°57' E 023°38'0 0.0
2018-Feb-24 05:00N 37°57' E 023°38'1 1.1
2018-Feb-24 04:30N 37°56' E 023°38'816.8
2018-Feb-24 04:01N 37°48' E 023°41'1019.4
2018-Feb-24 03:30N 37°39' E 023°46'16 0.5
2018-Feb-22 21:05N 37°23' E 023°48'819.3
2018-Feb-22 20:40N 37°31' E 023°46'319.1
2018-Feb-22 20:30N 37°34' E 023°44'1019.2
2018-Feb-22 20:00N 37°43' E 023°40'918.8
2018-Feb-22 19:30N 37°52' E 023°36'5 9.9
2018-Feb-22 18:59N 37°57' E 023°38'0 0.0
2018-Feb-22 18:29N 37°57' E 023°38'0 0.0
2018-Feb-22 17:59N 37°57' E 023°38'0 0.0
2018-Feb-22 17:29N 37°57' E 023°38'0 0.0
2018-Feb-22 16:59N 37°57' E 023°38'0 0.0
2018-Feb-22 16:29N 37°57' E 023°38'0 0.0
2018-Feb-22 15:59N 37°57' E 023°38'0 0.0
2018-Feb-22 15:29N 37°57' E 023°38'0 0.0
2018-Feb-22 14:59N 37°57' E 023°38'0 0.0
2018-Feb-22 14:29N 37°57' E 023°38'0 0.0
2018-Feb-22 13:56N 37°57' E 023°38'0 0.0
2018-Feb-22 13:29N 37°57' E 023°38'0 0.0
2018-Feb-22 12:59N 37°57' E 023°38'0 0.0
2018-Feb-22 12:29N 37°57' E 023°38'0 0.0
2018-Feb-22 11:59N 37°57' E 023°38'0 0.0
2018-Feb-22 11:29N 37°57' E 023°38'0 0.0
2018-Feb-22 10:59N 37°57' E 023°38'0 0.0
2018-Feb-22 10:29N 37°57' E 023°38'0 0.0
2018-Feb-22 09:59N 37°57' E 023°38'0 0.0
2018-Feb-22 09:29N 37°57' E 023°38'0 0.0
2018-Feb-22 08:59N 37°57' E 023°38'0 0.0
2018-Feb-22 08:29N 37°57' E 023°38'0 0.0
2018-Feb-22 07:59N 37°57' E 023°38'0 0.0
2018-Feb-22 07:29N 37°57' E 023°38'0 0.0
2018-Feb-22 06:59N 37°57' E 023°38'0 0.0
2018-Feb-22 06:29N 37°57' E 023°38'0 0.0
2018-Feb-22 05:59N 37°57' E 023°38'0 0.0
2018-Feb-22 05:29N 37°57' E 023°38'0 0.0
2018-Feb-22 04:59N 37°57' E 023°38'0 0.3
2018-Feb-22 04:30N 37°57' E 023°38'611.2
2018-Feb-22 04:00N 37°51' E 023°39'1019.4
2018-Feb-22 03:30N 37°42' E 023°45'1019.6
2018-Feb-22 02:59N 37°33' E 023°49'3 0.1
2018-Feb-20 20:47N 37°30' E 023°47'519.4
2018-Feb-20 20:30N 37°35' E 023°45'1019.5
2018-Feb-20 20:00N 37°44' E 023°40'1019.3
2018-Feb-20 19:30N 37°53' E 023°36'4 7.5
2018-Feb-20 18:59N 37°57' E 023°38'0 0.0
2018-Feb-20 18:29N 37°57' E 023°38'0 0.0
2018-Feb-20 17:56N 37°57' E 023°38'0 0.0
2018-Feb-20 17:29N 37°57' E 023°38'0 0.0
2018-Feb-20 16:59N 37°57' E 023°38'0 0.0
2018-Feb-20 16:29N 37°57' E 023°38'0 0.0
2018-Feb-20 15:59N 37°57' E 023°38'0 0.0
2018-Feb-20 15:29N 37°57' E 023°38'0 0.0
2018-Feb-20 14:59N 37°57' E 023°38'0 0.0
2018-Feb-20 14:29N 37°57' E 023°38'0 0.0
2018-Feb-20 13:59N 37°57' E 023°38'0 0.0
2018-Feb-20 13:29N 37°57' E 023°38'0 0.0
2018-Feb-20 12:59N 37°57' E 023°38'0 0.0
2018-Feb-20 12:29N 37°57' E 023°38'0 0.0
2018-Feb-20 11:59N 37°57' E 023°38'0 0.0
2018-Feb-20 11:29N 37°57' E 023°38'0 0.0
2018-Feb-20 10:59N 37°57' E 023°38'0 0.0
2018-Feb-20 10:29N 37°57' E 023°38'0 0.0
2018-Feb-20 09:59N 37°57' E 023°38'0 0.0
2018-Feb-20 09:29N 37°57' E 023°38'0 0.0
2018-Feb-20 08:59N 37°57' E 023°38'0 0.0
2018-Feb-20 08:29N 37°57' E 023°38'0 0.0
2018-Feb-20 07:59N 37°57' E 023°38'0 0.0
2018-Feb-20 07:29N 37°57' E 023°38'0 0.0
2018-Feb-20 06:59N 37°57' E 023°38'0 0.0
2018-Feb-20 06:29N 37°57' E 023°38'0 0.0
2018-Feb-20 05:59N 37°57' E 023°38'0 0.0
2018-Feb-20 05:26N 37°57' E 023°38'0 0.0
2018-Feb-20 04:59N 37°57' E 023°38'0 0.6
2018-Feb-20 04:30N 37°56' E 023°38'510.0
2018-Feb-20 04:00N 37°52' E 023°39'1019.3
2018-Feb-20 03:30N 37°43' E 023°44'11 0.4
2018-Feb-18 20:31N 37°32' E 023°46'119.0
2018-Feb-18 20:26N 37°33' E 023°45'819.3
2018-Feb-18 20:01N 37°41' E 023°41'1019.3
2018-Feb-18 19:31N 37°50' E 023°37'713.4
2018-Feb-18 18:59N 37°57' E 023°38'0 0.0
2018-Feb-18 18:29N 37°57' E 023°38'0 0.0
2018-Feb-18 17:59N 37°57' E 023°38'0 0.0
2018-Feb-18 17:29N 37°57' E 023°38'0 0.0
2018-Feb-18 16:59N 37°57' E 023°38'0 0.0
2018-Feb-18 16:29N 37°57' E 023°38'0 0.0
2018-Feb-18 15:59N 37°57' E 023°38'0 0.0
2018-Feb-18 15:29N 37°57' E 023°38'0 0.0
2018-Feb-18 14:59N 37°57' E 023°38'0 0.0
2018-Feb-18 14:29N 37°57' E 023°38'0 0.0
2018-Feb-18 13:59N 37°57' E 023°38'0 0.0
2018-Feb-18 13:29N 37°57' E 023°38'0 0.0
2018-Feb-18 12:59N 37°57' E 023°38'0 0.0
2018-Feb-18 12:29N 37°57' E 023°38'0 0.0
2018-Feb-18 11:59N 37°57' E 023°38'0 0.0
2018-Feb-18 11:29N 37°57' E 023°38'0 0.0
2018-Feb-18 10:59N 37°57' E 023°38'0 0.0
2018-Feb-18 10:29N 37°57' E 023°38'0 0.0
2018-Feb-18 09:59N 37°57' E 023°38'0 0.0
2018-Feb-18 09:29N 37°57' E 023°38'0 0.0
2018-Feb-18 08:59N 37°57' E 023°38'0 0.0
2018-Feb-18 08:29N 37°57' E 023°38'0 0.0
2018-Feb-18 07:59N 37°57' E 023°38'0 0.0
2018-Feb-18 07:29N 37°57' E 023°38'0 0.0
2018-Feb-18 06:59N 37°57' E 023°38'0 0.0
2018-Feb-18 06:29N 37°57' E 023°38'0 0.0
2018-Feb-18 05:59N 37°57' E 023°38'0 0.0
2018-Feb-18 05:29N 37°57' E 023°38'0 0.0
2018-Feb-18 04:59N 37°57' E 023°38'1 1.1
2018-Feb-18 04:30N 37°56' E 023°38'815.7
2018-Feb-18 04:00N 37°49' E 023°41'1019.4
2018-Feb-18 03:30N 37°40' E 023°46'7 0.2
2018-Feb-16 20:43N 37°33' E 023°45'419.3
2018-Feb-16 20:30N 37°37' E 023°43'1019.6
2018-Feb-16 20:01N 37°46' E 023°38'918.9
2018-Feb-16 19:30N 37°55' E 023°37'2 3.6
2018-Feb-16 19:00N 37°57' E 023°38'0 0.0
2018-Feb-16 18:30N 37°57' E 023°38'0 0.0
2018-Feb-16 18:00N 37°57' E 023°38'0 0.0
2018-Feb-16 17:30N 37°57' E 023°38'0 0.0
2018-Feb-16 17:00N 37°57' E 023°38'0 0.0
2018-Feb-16 16:30N 37°57' E 023°38'0 0.0
2018-Feb-16 16:00N 37°57' E 023°38'0 0.0
2018-Feb-16 15:30N 37°57' E 023°38'0 0.0
2018-Feb-16 15:01N 37°57' E 023°38'0 0.0
2018-Feb-16 14:30N 37°57' E 023°38'0 0.0
2018-Feb-16 14:00N 37°57' E 023°38'0 0.0
2018-Feb-16 13:31N 37°57' E 023°38'0 0.0
2018-Feb-16 13:01N 37°57' E 023°38'0 0.0
2018-Feb-16 12:30N 37°57' E 023°38'0 0.0
2018-Feb-16 12:00N 37°57' E 023°38'0 0.0
2018-Feb-16 11:30N 37°57' E 023°38'0 0.0
2018-Feb-16 11:00N 37°57' E 023°38'0 0.0
2018-Feb-16 10:30N 37°57' E 023°38'0 0.0
2018-Feb-16 10:00N 37°57' E 023°38'0 0.0
2018-Feb-16 09:30N 37°57' E 023°38'0 0.0
2018-Feb-16 09:00N 37°57' E 023°38'0 0.0
2018-Feb-16 08:30N 37°57' E 023°38'0 0.0
2018-Feb-16 08:00N 37°57' E 023°38'0 0.0
2018-Feb-16 07:30N 37°57' E 023°38'0 0.0
2018-Feb-16 07:00N 37°57' E 023°38'0 0.0
2018-Feb-16 06:30N 37°57' E 023°38'0 0.0
2018-Feb-16 06:00N 37°57' E 023°38'0 0.0
2018-Feb-16 05:30N 37°57' E 023°38'0 0.3
2018-Feb-16 05:00N 37°57' E 023°38'2 4.6
2018-Feb-16 04:31N 37°55' E 023°37'816.9
2018-Feb-16 04:00N 37°47' E 023°42'918.6
2018-Feb-16 03:30N 37°38' E 023°45'16 0.5
2018-Feb-14 21:09N 37°22' E 023°51'919.5
2018-Feb-14 20:41N 37°31' E 023°46'319.6
2018-Feb-14 20:30N 37°34' E 023°45'1019.5
2018-Feb-14 20:00N 37°43' E 023°40'1019.0
2018-Feb-14 19:30N 37°52' E 023°36'5 9.7
2018-Feb-14 19:00N 37°57' E 023°38'0 0.0
2018-Feb-14 18:30N 37°57' E 023°38'0 0.0
2018-Feb-14 18:00N 37°57' E 023°38'0 0.0
2018-Feb-14 17:30N 37°57' E 023°38'0 0.0
2018-Feb-14 17:00N 37°57' E 023°38'0 0.0
2018-Feb-14 16:27N 37°57' E 023°38'0 0.0
2018-Feb-14 16:00N 37°57' E 023°38'0 0.0
2018-Feb-14 15:30N 37°57' E 023°38'0 0.0
2018-Feb-14 15:00N 37°57' E 023°38'0 0.0
2018-Feb-14 14:30N 37°57' E 023°38'0 0.0
2018-Feb-14 14:00N 37°57' E 023°38'  

Dump ship's entire track history